Grizzly Air Cargo 5131


PANC
Ted Stevens Anchorage International Airport
Anchorage, Alaska, US
PAJN
Juneau International Airport
Juneau, Alaska, US

Activity Log

Date Flight Route Aircraft Duration
12/11/2019 GRZ5110 NOEND JOH J501 YAK J541 SSR B722 1h 44m
09/27/2019 GRZ501 NOEND JOH J501 YAK J541 SSR B722 1h 17m
09/24/2019 GRZ531 NOEND JOH J501 YAK J541 SSR B738 1h 33m
08/28/2019 GRZ531 NOEND JOH J501 YAK J541 SSR B738 1h 14m
07/23/2019 GRZ531 NOEND JOH J501 YAK J541 SSR B738 1h 39m
06/30/2019 GRZ501 NOEND JOH J501 YAK J541 SSR B722 1h 43m
05/09/2019 GRZ501 JOH J501 YAK J541 SSR B722 1h 33m
03/19/2019 GRZ501 YESKA J501 YAK J541 SSR B722 1h 32m
03/07/2019 GRZ501 NOEND JOH J501 YAK J541 SSR B722 1h 32m

Route Details

Aircraft Information
Primary: Boeing 737-800BCF
Backup: Boeing 727-200F
Route Data
Distance: 496nm
Sched. Duration: 1h 50m
Avg. Duration: 1h 32m (-18m)
Times Flown: 9
Recm'd Route: NOEND JOH J501 YAK J541 SSR
Planned Altitude: 31,000ft
Origin Wx: PANC 291053Z 00000KT 10SM CLR 12/06 A2995 RMK AO2 SLP144 T01170061
Dest. Wx: PAJN 291053Z 00000KT 10SM FEW095 SCT120 SCT190 07/04 A2997 RMK AO2 SLP150 T00670044
Notes:

Financial History
Total Freight: 308,152lbs
Average Load: 34,239lbs/flt
Fuel Used: 100,832lbs
Avg. Fuel Used: 11,204lbs/flt
Fuel Expense: $125,816
Avg. Fuel Expense: $13,980
Avg. Fuel Cost: $1.25/lbs
Total Gross Income: $441,904
Pilot Pay: $1,501
Total Expenses: $48,194
Total Revenue: $265,275
Average Revenue: $49,100.42